createdAt,value
2022-10-28T00:01:05.307Z,17.10
2022-10-28T00:03:32.864Z,16.90
2022-10-28T00:06:05.473Z,17.00
2022-10-28T00:08:33.343Z,17.00
2022-10-28T00:11:05.470Z,16.90
2022-10-28T00:13:32.406Z,16.90
2022-10-28T00:16:11.828Z,16.90
2022-10-28T00:18:39.343Z,16.90
2022-10-28T00:21:12.257Z,16.90
2022-10-28T00:23:39.627Z,16.90
2022-10-28T00:26:09.541Z,16.90
2022-10-28T00:28:40.206Z,16.90
2022-10-28T00:31:09.300Z,16.90
2022-10-28T00:33:36.341Z,16.80
2022-10-28T00:36:14.985Z,16.80
2022-10-28T00:38:43.640Z,16.80
2022-10-28T00:41:13.098Z,16.80
2022-10-28T00:43:45.537Z,16.80
2022-10-28T00:46:28.296Z,16.80
2022-10-28T00:49:00.325Z,16.80
2022-10-28T00:51:28.707Z,16.70
2022-10-28T00:53:56.557Z,16.70
2022-10-28T00:59:01.085Z,16.60
2022-10-28T01:01:28.214Z,16.60
2022-10-28T01:03:56.561Z,16.60
2022-10-28T01:06:25.363Z,16.60
2022-10-28T01:08:54.970Z,16.60
2022-10-28T01:11:50.230Z,16.50
2022-10-28T01:14:22.919Z,16.50
2022-10-28T01:17:15.017Z,16.50
2022-10-28T01:19:47.629Z,16.50
2022-10-28T01:22:28.621Z,16.50
2022-10-28T01:25:22.006Z,16.50
2022-10-28T01:28:04.006Z,16.50
2022-10-28T01:30:58.754Z,16.40
2022-10-28T01:33:52.310Z,16.40
2022-10-28T01:36:41.464Z,16.40
2022-10-28T01:39:30.943Z,16.40
2022-10-28T01:42:25.408Z,16.30
2022-10-28T01:45:14.205Z,16.30
2022-10-28T01:48:05.035Z,16.30
2022-10-28T01:50:31.895Z,16.30
2022-10-28T01:53:02.642Z,16.30
2022-10-28T01:55:35.025Z,16.30
2022-10-28T01:58:04.171Z,16.30
2022-10-28T02:00:33.074Z,16.20
2022-10-28T02:02:59.975Z,16.20
2022-10-28T02:05:52.283Z,16.20
2022-10-28T02:08:19.081Z,16.20
2022-10-28T02:11:06.116Z,16.20
2022-10-28T02:13:49.221Z,16.20
2022-10-28T02:16:15.965Z,16.20
2022-10-28T02:18:56.735Z,16.20
2022-10-28T02:21:35.774Z,16.30
2022-10-28T02:24:13.540Z,16.20
2022-10-28T02:26:52.570Z,16.20
2022-10-28T02:29:35.016Z,16.20
2022-10-28T02:32:13.872Z,16.20
2022-10-28T02:34:45.392Z,16.20
2022-10-28T02:37:22.450Z,16.40
2022-10-28T02:39:55.708Z,16.20
2022-10-28T02:42:33.275Z,16.20
2022-10-28T02:45:09.194Z,16.20
2022-10-28T02:47:40.244Z,16.30
2022-10-28T02:50:12.486Z,16.30
2022-10-28T02:52:42.465Z,16.40
2022-10-28T02:55:09.472Z,16.40
2022-10-28T02:57:41.613Z,16.40
2022-10-28T03:00:13.970Z,16.40
2022-10-28T03:02:40.949Z,16.40
2022-10-28T03:05:08.139Z,16.40
2022-10-28T03:07:34.956Z,16.40
2022-10-28T03:10:01.794Z,16.40
2022-10-28T03:12:28.598Z,16.40
2022-10-28T03:14:55.423Z,16.40
2022-10-28T03:17:22.283Z,16.40
2022-10-28T03:19:49.094Z,16.40
2022-10-28T03:22:15.926Z,16.40
2022-10-28T03:24:42.782Z,16.50
2022-10-28T03:27:09.574Z,16.50
2022-10-28T03:29:36.414Z,16.50
2022-10-28T03:32:03.331Z,16.50
2022-10-28T03:34:30.153Z,16.40
2022-10-28T03:36:57.046Z,16.50
2022-10-28T03:39:23.959Z,16.50
2022-10-28T03:41:50.860Z,16.40
2022-10-28T03:44:17.708Z,16.40
2022-10-28T03:46:44.548Z,16.40
2022-10-28T03:49:11.346Z,16.40
2022-10-28T03:51:38.170Z,16.40
2022-10-28T03:54:04.979Z,16.30
2022-10-28T03:56:31.845Z,16.30
2022-10-28T03:58:58.662Z,16.30
2022-10-28T04:01:25.591Z,16.30
2022-10-28T04:03:52.524Z,16.40
2022-10-28T04:06:19.409Z,16.40
2022-10-28T04:08:46.280Z,16.40
2022-10-28T04:11:13.132Z,16.40
2022-10-28T04:13:39.923Z,16.50
2022-10-28T04:16:07.118Z,16.50
2022-10-28T04:18:35.403Z,16.50
2022-10-28T04:21:02.983Z,16.70
2022-10-28T04:23:30.038Z,16.50
2022-10-28T04:25:57.074Z,16.60
2022-10-28T04:28:26.703Z,16.60
2022-10-28T04:30:53.586Z,16.70
2022-10-28T04:33:20.478Z,16.70
2022-10-28T04:35:47.439Z,16.70
2022-10-28T04:38:15.401Z,16.80
2022-10-28T04:40:42.514Z,16.80
2022-10-28T04:43:11.719Z,16.80
2022-10-28T04:45:39.318Z,16.80
2022-10-28T04:48:06.360Z,16.80
2022-10-28T04:50:33.521Z,16.80
2022-10-28T04:53:00.664Z,16.80
2022-10-28T04:55:27.572Z,16.80
2022-10-28T04:57:59.506Z,16.80
2022-10-28T05:00:28.445Z,16.80
2022-10-28T05:02:56.268Z,16.90
2022-10-28T05:05:23.332Z,16.90
2022-10-28T05:07:50.131Z,17.00
2022-10-28T05:10:18.030Z,17.00
2022-10-28T05:12:45.911Z,17.10
2022-10-28T05:15:13.630Z,17.10
2022-10-28T05:17:44.607Z,17.10
2022-10-28T05:20:12.818Z,17.20
2022-10-28T05:22:46.242Z,17.20
2022-10-28T05:25:13.157Z,17.30
2022-10-28T05:27:40.027Z,17.30
2022-10-28T05:30:07.936Z,17.30
2022-10-28T05:32:34.944Z,17.40
2022-10-28T05:35:01.886Z,17.40
2022-10-28T05:37:28.743Z,17.40
2022-10-28T05:39:55.675Z,17.40
2022-10-28T05:42:22.521Z,17.40
2022-10-28T05:44:49.398Z,17.40
2022-10-28T05:47:16.218Z,17.40
2022-10-28T05:49:43.053Z,17.40
2022-10-28T05:52:09.887Z,17.50
2022-10-28T05:54:36.789Z,17.50
2022-10-28T05:57:03.725Z,17.50
2022-10-28T05:59:30.633Z,17.50
2022-10-28T06:01:57.477Z,17.50
2022-10-28T06:04:24.415Z,17.50
2022-10-28T06:06:55.148Z,17.60
2022-10-28T06:09:22.313Z,17.60
2022-10-28T06:11:47.610Z,17.70
2022-10-28T06:14:14.541Z,17.70
2022-10-28T06:16:42.298Z,17.70
2022-10-28T06:19:09.183Z,17.60
2022-10-28T06:21:36.027Z,17.60
2022-10-28T06:24:03.266Z,17.60
2022-10-28T06:26:30.249Z,17.50
2022-10-28T06:28:57.155Z,17.60
2022-10-28T06:31:24.001Z,17.50
2022-10-28T06:33:50.889Z,17.50
2022-10-28T06:36:17.733Z,17.50
2022-10-28T06:38:45.329Z,17.40
2022-10-28T06:41:12.102Z,17.50
2022-10-28T06:43:38.921Z,17.40
2022-10-28T06:46:05.800Z,17.50
2022-10-28T06:48:34.432Z,17.50
2022-10-28T06:51:01.341Z,17.50
2022-10-28T06:53:28.240Z,17.50
2022-10-28T06:55:56.146Z,17.50
2022-10-28T06:58:23.897Z,17.50
2022-10-28T07:00:51.118Z,17.60
2022-10-28T07:03:27.142Z,17.60
2022-10-28T07:05:55.279Z,17.60
2022-10-28T07:08:22.260Z,17.70
2022-10-28T07:11:00.066Z,17.70
2022-10-28T07:13:27.477Z,17.80
2022-10-28T07:15:55.847Z,17.80
2022-10-28T07:18:23.745Z,17.80
2022-10-28T07:20:50.817Z,17.80
2022-10-28T07:23:18.195Z,17.90
2022-10-28T07:25:55.817Z,17.90
2022-10-28T07:28:24.477Z,18.00
2022-10-28T07:30:51.365Z,18.00
2022-10-28T07:33:18.360Z,18.10
2022-10-28T07:35:45.483Z,18.10
2022-10-28T07:38:12.544Z,18.20
2022-10-28T07:40:39.373Z,18.30
2022-10-28T07:43:06.280Z,18.30
2022-10-28T07:45:34.923Z,18.40
2022-10-28T07:48:02.113Z,18.50
2022-10-28T07:50:30.194Z,18.60
2022-10-28T07:52:57.319Z,18.80
2022-10-28T07:55:26.125Z,19.00
2022-10-28T07:57:53.381Z,19.20
2022-10-28T08:00:20.361Z,19.40
2022-10-28T08:02:47.222Z,19.50
2022-10-28T08:05:14.160Z,19.70
2022-10-28T08:07:41.093Z,19.80
2022-10-28T08:10:08.557Z,19.90
2022-10-28T08:12:35.595Z,19.90
2022-10-28T08:15:02.937Z,19.90
2022-10-28T08:17:30.033Z,19.90
2022-10-28T08:19:56.904Z,19.90
2022-10-28T08:22:23.781Z,19.90
2022-10-28T08:24:50.686Z,19.90
2022-10-28T08:27:17.467Z,19.90
2022-10-28T08:29:44.354Z,20.00
2022-10-28T08:32:11.195Z,20.00
2022-10-28T08:34:40.951Z,20.00
2022-10-28T08:37:10.675Z,20.10
2022-10-28T08:39:37.556Z,20.10
2022-10-28T08:42:22.598Z,20.10
2022-10-28T08:44:58.538Z,20.10
2022-10-28T08:47:53.014Z,20.10
2022-10-28T08:50:23.186Z,20.20
2022-10-28T08:53:01.244Z,20.30
2022-10-28T08:55:35.977Z,20.30
2022-10-28T08:58:13.249Z,20.40
2022-10-28T09:00:43.274Z,20.50
2022-10-28T09:03:24.220Z,20.60
2022-10-28T09:06:05.713Z,20.70
2022-10-28T09:08:37.488Z,20.80
2022-10-28T09:11:27.175Z,20.90
2022-10-28T09:14:02.912Z,21.10
2022-10-28T09:17:10.266Z,21.20
2022-10-28T09:19:52.320Z,21.30
2022-10-28T09:22:34.269Z,21.40
2022-10-28T09:25:02.794Z,21.40
2022-10-28T09:27:38.523Z,21.50
2022-10-28T09:30:28.262Z,21.70
2022-10-28T09:33:16.937Z,21.80
2022-10-28T09:35:47.081Z,21.90
2022-10-28T09:38:31.752Z,22.00
2022-10-28T09:41:11.892Z,22.10
2022-10-28T09:43:46.844Z,22.20
2022-10-28T09:46:18.187Z,22.30
2022-10-28T09:48:55.625Z,22.30
2022-10-28T09:51:44.990Z,22.30
2022-10-28T09:54:13.272Z,22.30
2022-10-28T09:56:40.908Z,22.30
2022-10-28T09:59:11.883Z,22.30
2022-10-28T10:01:40.945Z,22.30
2022-10-28T10:04:22.521Z,22.30
2022-10-28T10:07:17.819Z,22.40
2022-10-28T10:09:44.993Z,22.40
2022-10-28T10:12:13.239Z,22.50
2022-10-28T10:14:47.742Z,22.50
2022-10-28T10:17:21.447Z,22.60
2022-10-28T10:20:07.364Z,22.60
2022-10-28T10:22:40.417Z,22.70
2022-10-28T10:25:25.234Z,22.70
2022-10-28T10:28:03.713Z,22.70
2022-10-28T10:30:38.440Z,22.80
2022-10-28T10:33:07.395Z,22.70
2022-10-28T10:35:36.985Z,22.80
2022-10-28T10:38:06.514Z,22.80
2022-10-28T10:40:48.970Z,22.80
2022-10-28T10:43:18.508Z,22.80
2022-10-28T10:46:02.164Z,22.80
2022-10-28T10:48:35.988Z,22.90
2022-10-28T10:51:40.079Z,22.90
2022-10-28T10:54:15.307Z,23.00
2022-10-28T10:56:43.110Z,23.00
2022-10-28T10:59:19.249Z,23.00
2022-10-28T11:01:49.485Z,23.00
2022-10-28T11:04:21.592Z,23.10
2022-10-28T11:06:56.962Z,23.10
2022-10-28T11:09:39.568Z,23.10
2022-10-28T11:12:27.027Z,23.10
2022-10-28T11:15:02.233Z,23.20
2022-10-28T11:17:34.070Z,23.20
2022-10-28T11:20:31.068Z,23.30
2022-10-28T11:23:07.699Z,23.30
2022-10-28T11:25:38.465Z,23.30
2022-10-28T11:28:23.468Z,23.40
2022-10-28T11:31:09.066Z,23.40
2022-10-28T11:33:53.593Z,23.40
2022-10-28T11:36:32.709Z,23.40
2022-10-28T11:39:04.857Z,23.50
2022-10-28T11:41:57.538Z,23.50
2022-10-28T11:44:41.012Z,23.50
2022-10-28T11:47:13.708Z,23.50
2022-10-28T11:50:05.678Z,23.50
2022-10-28T11:53:17.089Z,23.60
2022-10-28T11:56:04.154Z,23.60
2022-10-28T11:58:39.676Z,23.60
2022-10-28T12:01:24.585Z,23.70
2022-10-28T12:04:06.587Z,23.70
2022-10-28T12:07:00.790Z,23.80
2022-10-28T12:09:46.122Z,23.80
2022-10-28T12:12:34.882Z,23.90
2022-10-28T12:15:33.603Z,23.90
2022-10-28T12:18:20.067Z,24.00
2022-10-28T12:20:50.158Z,24.00
2022-10-28T12:23:20.627Z,24.00
2022-10-28T12:25:51.663Z,24.10
2022-10-28T12:28:24.633Z,24.10
2022-10-28T12:30:52.808Z,24.10
2022-10-28T12:33:45.539Z,24.20
2022-10-28T12:36:24.465Z,24.20
2022-10-28T12:38:57.283Z,24.30
2022-10-28T12:41:27.278Z,24.30
2022-10-28T12:44:03.095Z,24.40
2022-10-28T12:49:28.277Z,24.50
2022-10-28T12:51:59.460Z,24.70
2022-10-28T12:54:53.783Z,24.80
2022-10-28T12:57:23.884Z,24.80
2022-10-28T13:00:05.817Z,24.80
2022-10-28T13:02:39.418Z,24.90
2022-10-28T13:05:07.219Z,24.90
2022-10-28T13:07:43.042Z,24.80
2022-10-28T13:10:17.566Z,24.80
2022-10-28T13:13:02.549Z,24.80
2022-10-28T13:15:40.335Z,24.80
2022-10-28T13:18:16.290Z,24.70
2022-10-28T13:20:46.419Z,24.80
2022-10-28T13:23:27.424Z,24.80
2022-10-28T13:26:12.915Z,24.80
2022-10-28T13:28:48.884Z,24.80
2022-10-28T13:31:16.619Z,24.80
2022-10-28T13:33:56.054Z,24.70
2022-10-28T13:36:38.683Z,24.70
2022-10-28T13:39:22.185Z,24.60
2022-10-28T13:41:49.183Z,24.50
2022-10-28T13:44:23.735Z,24.50
2022-10-28T13:46:59.839Z,24.50
2022-10-28T13:49:38.243Z,24.40
2022-10-28T13:52:08.144Z,24.40
2022-10-28T13:54:44.021Z,24.40
2022-10-28T13:57:29.504Z,24.30
2022-10-28T14:00:04.533Z,24.30
2022-10-28T14:02:39.698Z,24.30
2022-10-28T14:05:16.613Z,24.20
2022-10-28T14:07:57.576Z,24.20
2022-10-28T14:10:29.863Z,24.20
2022-10-28T14:13:09.252Z,24.20
2022-10-28T14:15:38.592Z,24.20
2022-10-28T14:18:43.180Z,24.10
2022-10-28T14:21:02.115Z,24.10
2022-10-28T14:23:29.209Z,24.00
2022-10-28T14:25:58.732Z,24.00
2022-10-28T14:28:31.476Z,24.00
2022-10-28T14:31:11.483Z,24.00
2022-10-28T14:34:04.834Z,23.90
2022-10-28T14:36:48.942Z,23.90
2022-10-28T14:39:25.426Z,23.90
2022-10-28T14:42:17.052Z,23.80
2022-10-28T14:45:05.111Z,23.80
2022-10-28T14:48:08.860Z,23.70
2022-10-28T14:50:47.254Z,23.70
2022-10-28T14:53:30.118Z,23.60
2022-10-28T14:56:07.920Z,23.60
2022-10-28T14:58:40.948Z,23.50
2022-10-28T15:01:17.246Z,23.50
2022-10-28T15:04:01.187Z,23.40
2022-10-28T15:06:46.742Z,23.30
2022-10-28T15:09:19.176Z,23.30
2022-10-28T15:11:50.545Z,23.20
2022-10-28T15:14:29.204Z,23.10
2022-10-28T15:16:56.636Z,23.10
2022-10-28T15:19:26.773Z,23.00
2022-10-28T15:22:19.919Z,23.00
2022-10-28T15:25:10.579Z,22.90
2022-10-28T15:27:39.193Z,22.90
2022-10-28T15:30:20.772Z,22.80
2022-10-28T15:32:47.670Z,22.70
2022-10-28T15:35:38.523Z,22.70
2022-10-28T15:38:27.972Z,22.60
2022-10-28T15:40:55.059Z,22.50
2022-10-28T15:43:30.252Z,22.40
2022-10-28T15:46:10.214Z,22.40
2022-10-28T15:48:37.577Z,22.30
2022-10-28T15:51:15.938Z,22.20
2022-10-28T15:53:44.783Z,22.20
2022-10-28T15:56:14.786Z,22.10
2022-10-28T15:58:43.749Z,22.10
2022-10-28T16:01:28.275Z,22.00
2022-10-28T16:03:55.234Z,22.00
2022-10-28T16:06:23.663Z,21.90
2022-10-28T16:09:18.392Z,21.90
2022-10-28T16:11:56.592Z,21.80
2022-10-28T16:14:32.412Z,21.80
2022-10-28T16:17:26.710Z,21.70
2022-10-28T16:20:17.047Z,21.70
2022-10-28T16:22:46.553Z,21.60
2022-10-28T16:25:16.358Z,21.60
2022-10-28T16:27:43.709Z,21.60
2022-10-28T16:30:11.329Z,21.50
2022-10-28T16:32:49.776Z,21.50
2022-10-28T16:35:26.532Z,21.50
2022-10-28T16:37:55.441Z,21.40
2022-10-28T16:40:52.173Z,21.40
2022-10-28T16:43:19.699Z,21.40
2022-10-28T16:45:48.027Z,21.30
2022-10-28T16:48:16.376Z,21.30
2022-10-28T16:50:47.721Z,21.30
2022-10-28T16:53:14.886Z,21.20
2022-10-28T16:55:42.202Z,21.20
2022-10-28T16:58:09.395Z,21.10
2022-10-28T17:00:37.018Z,21.10
2022-10-28T17:03:04.908Z,21.10
2022-10-28T17:05:32.493Z,21.10
2022-10-28T17:07:59.861Z,21.10
2022-10-28T17:10:27.524Z,21.00
2022-10-28T17:12:54.939Z,21.00
2022-10-28T17:15:22.193Z,21.00
2022-10-28T17:17:50.844Z,20.90
2022-10-28T17:20:18.378Z,20.90
2022-10-28T17:22:45.383Z,20.90
2022-10-28T17:25:12.376Z,20.90
2022-10-28T17:27:39.457Z,20.90
2022-10-28T17:30:07.457Z,20.80
2022-10-28T17:32:34.413Z,20.80
2022-10-28T17:35:01.299Z,20.80
2022-10-28T17:37:28.221Z,20.80
2022-10-28T17:42:22.174Z,20.80
2022-10-28T17:44:49.066Z,20.80
2022-10-28T17:47:16.029Z,20.80
2022-10-28T17:49:42.940Z,20.70
2022-10-28T17:52:09.812Z,20.80
2022-10-28T17:54:36.763Z,20.70
2022-10-28T17:57:03.791Z,20.70
2022-10-28T17:59:30.772Z,20.70
2022-10-28T18:01:57.764Z,20.70
2022-10-28T18:04:26.435Z,20.70
2022-10-28T18:06:54.797Z,20.70
2022-10-28T18:09:22.244Z,20.70
2022-10-28T18:11:50.334Z,20.70
2022-10-28T18:14:18.135Z,20.70
2022-10-28T18:16:50.116Z,20.70
2022-10-28T18:19:17.181Z,20.70
2022-10-28T18:21:44.872Z,20.80
2022-10-28T18:24:11.852Z,20.80
2022-10-28T18:26:39.594Z,20.80
2022-10-28T18:29:09.989Z,20.70
2022-10-28T18:31:38.332Z,20.70
2022-10-28T18:34:05.429Z,20.70
2022-10-28T18:36:35.562Z,20.70
2022-10-28T18:39:05.082Z,20.70
2022-10-28T18:41:32.859Z,20.70
2022-10-28T18:44:01.762Z,20.70
2022-10-28T18:46:30.847Z,20.70
2022-10-28T18:48:57.812Z,20.70
2022-10-28T18:51:25.203Z,20.80
2022-10-28T18:53:52.440Z,20.70
2022-10-28T18:56:21.766Z,20.70
2022-10-28T18:58:49.384Z,20.70
2022-10-28T19:01:18.828Z,20.70
2022-10-28T19:03:48.159Z,20.70
2022-10-28T19:06:16.336Z,20.70
2022-10-28T19:08:44.020Z,20.60
2022-10-28T19:11:13.483Z,20.60
2022-10-28T19:13:41.822Z,20.60
2022-10-28T19:16:09.242Z,20.60
2022-10-28T19:18:38.112Z,20.60
2022-10-28T19:21:14.658Z,20.50
2022-10-28T19:23:42.093Z,20.60
2022-10-28T19:26:11.204Z,20.50
2022-10-28T19:28:39.490Z,20.50
2022-10-28T19:31:09.895Z,20.50
2022-10-28T19:33:40.380Z,20.40
2022-10-28T19:36:20.654Z,20.30
2022-10-28T19:38:48.868Z,20.30
2022-10-28T19:41:17.866Z,20.20
2022-10-28T19:43:45.239Z,20.20
2022-10-28T19:46:18.092Z,20.20
2022-10-28T19:48:47.422Z,20.10
2022-10-28T19:51:17.692Z,20.10
2022-10-28T19:53:52.513Z,20.10
2022-10-28T19:56:20.355Z,20.00
2022-10-28T19:58:51.331Z,20.00
2022-10-28T20:01:18.362Z,19.60
2022-10-28T20:03:49.259Z,19.90
2022-10-28T20:06:17.909Z,19.90
2022-10-28T20:08:46.497Z,19.80
2022-10-28T20:11:28.274Z,19.80
2022-10-28T20:14:03.199Z,19.80
2022-10-28T20:16:30.976Z,19.80
2022-10-28T20:18:58.329Z,19.70
2022-10-28T20:21:27.518Z,19.70
2022-10-28T20:23:56.353Z,19.70
2022-10-28T20:26:30.196Z,19.60
2022-10-28T20:28:59.002Z,19.60
2022-10-28T20:31:28.497Z,19.60
2022-10-28T20:34:01.489Z,19.60
2022-10-28T20:36:37.334Z,19.60
2022-10-28T20:39:15.653Z,19.50
2022-10-28T20:41:43.981Z,19.50
2022-10-28T20:44:11.576Z,19.50
2022-10-28T20:46:38.878Z,19.40
2022-10-28T20:49:07.825Z,19.40
2022-10-28T20:51:35.470Z,19.30
2022-10-28T20:54:05.147Z,19.30
2022-10-28T20:56:34.244Z,19.20
2022-10-28T20:59:01.372Z,19.20
2022-10-28T21:01:30.862Z,19.20
2022-10-28T21:04:04.331Z,19.20
2022-10-28T21:06:31.627Z,19.20
2022-10-28T21:08:59.310Z,19.20
2022-10-28T21:11:27.539Z,19.10
2022-10-28T21:13:57.068Z,19.10
2022-10-28T21:16:25.379Z,19.10
2022-10-28T21:18:52.864Z,19.10
2022-10-28T21:21:20.832Z,19.10
2022-10-28T21:23:47.695Z,19.10
2022-10-28T21:26:14.547Z,19.10
2022-10-28T21:28:41.570Z,19.10
2022-10-28T21:31:12.160Z,19.10
2022-10-28T21:33:40.449Z,19.10
2022-10-28T21:36:11.552Z,19.10
2022-10-28T21:38:38.842Z,19.00
2022-10-28T21:41:13.988Z,19.00
2022-10-28T21:43:43.702Z,19.00
2022-10-28T21:46:11.148Z,18.90
2022-10-28T21:48:38.443Z,18.90
2022-10-28T21:51:11.629Z,18.80
2022-10-28T21:53:43.448Z,18.80
2022-10-28T21:56:18.156Z,18.80
2022-10-28T21:58:47.458Z,18.80
2022-10-28T22:01:17.589Z,18.80
2022-10-28T22:03:44.575Z,18.80
2022-10-28T22:06:11.587Z,18.80
2022-10-28T22:08:38.442Z,18.80
2022-10-28T22:11:12.217Z,18.80
2022-10-28T22:13:39.050Z,18.80
2022-10-28T22:18:45.985Z,18.80
2022-10-28T22:21:19.046Z,18.80
2022-10-28T22:23:46.232Z,18.90
2022-10-28T22:26:16.409Z,18.80
2022-10-28T22:28:43.603Z,18.80
2022-10-28T22:31:12.899Z,18.80
2022-10-28T22:33:39.967Z,18.70
2022-10-28T22:36:09.524Z,18.70
2022-10-28T22:38:36.422Z,18.60
2022-10-28T22:41:28.308Z,18.60
2022-10-28T22:43:57.345Z,18.60
2022-10-28T22:46:26.200Z,18.50
2022-10-28T22:48:53.672Z,18.50
2022-10-28T22:51:21.065Z,18.50
2022-10-28T22:53:48.607Z,18.50
2022-10-28T22:56:18.431Z,18.50
2022-10-28T22:58:45.312Z,18.40
2022-10-28T23:01:17.871Z,18.50
2022-10-28T23:03:46.762Z,18.40
2022-10-28T23:06:15.748Z,18.40
2022-10-28T23:08:44.696Z,18.30
2022-10-28T23:11:12.507Z,18.30
2022-10-28T23:13:39.750Z,18.30
2022-10-28T23:16:09.177Z,18.30
2022-10-28T23:18:36.337Z,18.30
2022-10-28T23:21:05.036Z,18.20
2022-10-28T23:23:31.924Z,18.20
2022-10-28T23:25:58.773Z,18.20
2022-10-28T23:28:25.663Z,18.10
2022-10-28T23:30:52.572Z,18.10
2022-10-28T23:33:19.448Z,18.00
2022-10-28T23:35:57.238Z,18.00
2022-10-28T23:38:24.616Z,18.00
2022-10-28T23:40:59.492Z,17.90
2022-10-28T23:43:27.555Z,17.90
2022-10-28T23:45:55.179Z,17.90
2022-10-28T23:48:22.777Z,17.90
2022-10-28T23:50:49.675Z,17.90
2022-10-28T23:53:17.256Z,17.90
2022-10-28T23:55:46.216Z,18.00
2022-10-28T23:58:14.071Z,18.00
